• Join FlightAware (Why Join?)
  • Login
  • US Flag 
03:23PM EST


 

Airport Tracker/Info


-or-


 

Live Flight TrackerFlight Track Log ✈ DAL2082 ✈ 07-May-2013 ✈ KRSW - KATL

Flight Track Log - Related Links

Times and Time Zones

All times are in EDT time to prevent confusion due to time zone crossing. See the DAL2082 flight status page for this flight to view local times or setup timezone preferences in your user account.

Time Position Orientation Groundspeed Altitude Reporting Facility
EDT Latitude Longitude Course Direction KTS MPH feet Rate Location/Type
12:28PM 26.5008 -81.8981 336° Northwest 250 288 6,000  Level Miami Center
12:29PM 26.8492 -81.7333 North  Level FlightAware Approximate
12:29PM 26.5731 -81.9200 345° North 220 253 9,300  Level Miami Center
12:30PM 26.9550 -81.7333 North  Level FlightAware Approximate
12:30PM 26.6567 -81.9211 359° North 231 266 11,500  Level Miami Center
12:31PM 27.0581 -81.7499 340° North  Level FlightAware Approximate
12:31PM 26.7575 -81.9022 North 302 348 13,300  Level Miami Center
12:32PM 27.1590 -81.7851 350° North  Level FlightAware Approximate
12:32PM 26.8575 -81.8483 26° Northeast 348 400 16,000  Level Miami Center
12:33PM 27.2610 -81.8138 336° Northwest  Level FlightAware Approximate
12:33PM 26.9600 -81.7806 31° Northeast 382 440 16,900  Level Miami Center
12:34PM 27.0672 -81.7547 12° North 393 452 17,100 1,320 Climbing Miami Center
12:35PM 27.1889 -81.7997 342° North 383 441 19,600 2,220 Climbing Miami Center
12:36PM 27.3006 -81.8347 344° North 403 464 21,600 1,860 Climbing Miami Center
12:37PM 27.4056 -81.8719 343° North 429 494 23,400 1,800 Climbing Miami Center
12:38PM 27.5253 -81.9122 343° North 442 509 25,300 1,800 Climbing Miami Center
12:39PM 27.6569 -81.9628 341° North 442 509 27,100 1,500 Climbing Miami Center
12:40PM 27.7808 -82.0033 344° North 454 522 28,400 840 Climbing Miami Center
12:42PM 28.0575 -82.0742 347° North 478 550 30,000 1,020 Climbing Jacksonville Center
12:43PM 28.1542 -82.1628 321° Northwest 441 507 31,800 960 Climbing Jacksonville Center
12:44PM 28.2483 -82.2469 322° Northwest 441 507 32,000  Climbing Jacksonville Center
12:45PM 28.3450 -82.3336 322° Northwest 441 507 31,900  Descending Jacksonville Center
12:46PM 28.4392 -82.4206 321° Northwest 441 507 32,000  Climbing Jacksonville Center
12:47PM 28.5353 -82.5075 322° Northwest 441 507 32,000  Level Jacksonville Center
12:48PM 28.6317 -82.5944 322° Northwest 441 507 32,000 360 Level Jacksonville Center
12:49PM 28.7300 -82.6772 324° Northwest 447 514 32,800 1,140 Climbing Jacksonville Center
12:50PM 28.8344 -82.7481 329° Northwest 442 509 34,400 1,380 Climbing Jacksonville Center
12:51PM 28.9408 -82.8189 330° Northwest 442 509 35,600 1,200 Climbing Jacksonville Center
12:52PM 29.0494 -82.8903 330° Northwest 442 509 36,900 1,140 Climbing Jacksonville Center
12:53PM 29.1539 -82.9592 330° Northwest 442 509 37,900 540 Climbing Jacksonville Center
12:54PM 29.2581 -83.0283 330° Northwest 442 509 38,000  Climbing Jacksonville Center
12:55PM 29.3625 -83.0975 330° Northwest 442 509 38,000 -60 Level Jacksonville Center
12:56PM 29.4686 -83.1692 330° Northwest 437 503 37,900 -60 Descending Jacksonville Center
12:57PM 29.5792 -83.2411 330° Northwest 444 511 37,900  Level Jacksonville Center
12:58PM 29.6814 -83.3108 329° Northwest 438 504 37,900  Level Jacksonville Center
12:59PM 29.7894 -83.3831 330° Northwest 438 504 37,900  Level Jacksonville Center
01:00PM 29.9061 -83.4606 330° Northwest 443 510 37,900  Level Jacksonville Center
01:01PM 30.0122 -83.5306 330° Northwest 443 510 37,900  Level Jacksonville Center
01:02PM 30.1183 -83.6008 330° Northwest 443 510 37,900  Level Jacksonville Center
01:03PM 30.2244 -83.6739 329° Northwest 443 510 37,900  Level Jacksonville Center
01:04PM 30.3306 -83.7444 330° Northwest 438 504 37,900  Level Jacksonville Center
01:05PM 30.4364 -83.8153 330° Northwest 443 510 37,900  Level Jacksonville Center
01:06PM 30.5403 -83.8886 329° Northwest 437 503 38,000  Climbing Jacksonville Center
01:07PM 30.6317 -83.9500 330° Northwest 431 496 38,000  Level Jacksonville Center
01:08PM 30.7356 -84.0236 329° Northwest 431 496 38,000 -180 Level Jacksonville Center
01:09PM 30.8414 -84.0950 330° Northwest 431 496 37,700 -720 Descending Jacksonville Center
01:10PM 30.9450 -84.1667 329° Northwest 431 496 36,600 -1,440 Descending Jacksonville Center
01:11PM 31.0486 -84.2358 330° Northwest 426 490 34,900 -1,320 Descending Jacksonville Center
01:12PM 31.1503 -84.3078 329° Northwest 426 490 34,000 -300 Descending Jacksonville Center
01:14PM 31.3972 -84.4792 329° Northwest 426 490 34,000  Level Atlanta Center
01:15PM 31.4972 -84.5478 330° Northwest 421 484 34,000  Level Atlanta Center
01:16PM 31.5969 -84.6217 328° Northwest 421 484 34,000  Level Atlanta Center
01:17PM 31.6989 -84.6906 330° Northwest 421 484 34,000 -240 Level Atlanta Center
01:19PM 31.7864 -84.7522 329° Northwest 421 484 33,500 -1,140 Descending Atlanta Center
01:20PM 31.9131 -84.8267 333° Northwest 421 484 31,500 -1,800 Descending Atlanta Center
01:21PM 32.0319 -84.8644 345° North 427 491 29,900 -1,860 Descending Atlanta Center
01:22PM 32.1486 -84.9025 345° North 427 491 27,800 -1,500 Descending Atlanta Center
01:23PM 32.2714 -84.9403 345° North 421 484 27,000 -900 Descending Atlanta Center
01:24PM 32.3756 -84.9758 344° North 401 461 26,100 -1,080 Descending Atlanta Center
01:25PM 32.4775 -85.0114 344° North 386 444 24,900 -1,080 Descending Atlanta Center
01:26PM 32.5858 -85.0472 344° North 386 444 24,000 -600 Descending Atlanta Center
01:27PM 32.6817 -85.0728 347° North 371 427 23,800 -900 Descending Atlanta Center
01:28PM 32.7692 -85.0714 North 371 427 22,200 -2,040 Descending Atlanta Center
01:29PM 32.8842 -85.0628 North 371 427 19,800 -2,220 Descending Atlanta Center
01:30PM 32.9928 -85.0492 North 366 421 17,800 -2,100 Descending Atlanta Center
01:31PM 33.0889 -85.0406 North 355 409 15,700 -1,920 Descending Atlanta Center
01:32PM 33.1808 -85.0317 North 338 389 14,000 -900 Descending Atlanta Center
01:33PM 33.2503 -84.9556 42° Northeast 313 360 13,900 -540 Descending Atlanta Center
01:34PM 33.3072 -84.8664 53° Northeast 318 366 13,000 -1,020 Descending Atlanta Center
01:35PM 33.3703 -84.7825 48° Northeast 328 377 11,900 -600 Descending Atlanta Center
01:36PM 33.4336 -84.6961 49° Northeast 333 383 11,900  Level Atlanta Center
01:37PM 33.4944 -84.6142 48° Northeast 333 383 11,900 -120 Level Atlanta Center
01:38PM 33.5428 -84.5422 51° Northeast 291 335 11,700 -660 Descending Atlanta Center
01:39PM 33.5500 -84.4500 85° East 259 298 10,700 -1,140 Descending Atlanta TRACON
01:40PM 33.5500 -84.3667 90° East 253 291 9,500 -1,380 Descending Atlanta TRACON
01:41PM 33.5500 -84.2833 90° East 238 274 8,000 -1,680 Descending Atlanta TRACON
01:42PM 33.5500 -84.2167 90° East 230 265 6,200 -1,740 Descending Atlanta TRACON
01:43PM 33.5500 -84.1333 90° East 223 257 4,500 -1,620 Descending Atlanta TRACON
01:44PM 33.5667 -84.0833 68° East 229 264 3,000 -840 Descending Atlanta TRACON
01:45PM 33.6000 -84.1500 301° West 217 250 2,900  Descending Atlanta TRACON
01:46PM 33.6167 -84.2167 287° West 207 238 3,000  Climbing Atlanta TRACON
01:47PM 33.6167 -84.2667 270° West 197 227 3,000  Level Atlanta TRACON